createdAt,value
2022-08-11T00:03:22.462Z,98171.16
2022-08-11T00:07:28.338Z,98169.56
2022-08-11T00:11:36.333Z,98171.16
2022-08-11T00:15:46.115Z,98169.56
2022-08-11T00:20:12.584Z,98171.56
2022-08-11T00:24:17.346Z,98163.44
2022-08-11T00:28:31.367Z,98165.00
2022-08-11T00:32:38.342Z,98165.00
2022-08-11T00:36:54.543Z,98161.88
2022-08-11T00:41:06.046Z,98152.69
2022-08-11T00:45:15.078Z,98148.34
2022-08-11T00:49:30.891Z,98144.84
2022-08-11T00:53:47.299Z,98144.63
2022-08-11T00:58:50.822Z,98144.00
2022-08-11T01:03:33.005Z,98146.84
2022-08-11T01:08:06.265Z,98140.50
2022-08-11T01:12:51.814Z,98140.22
2022-08-11T01:17:14.920Z,98134.06
2022-08-11T01:21:49.195Z,98146.50
2022-08-11T01:26:17.215Z,98141.66
2022-08-11T01:31:01.673Z,98135.19
2022-08-11T01:35:29.242Z,98132.59
2022-08-11T01:40:06.303Z,98137.34
2022-08-11T01:44:50.308Z,98140.94
2022-08-11T01:50:05.974Z,98140.13
2022-08-11T01:53:40.209Z,98137.31
2022-08-11T01:57:51.625Z,98128.84
2022-08-11T02:02:08.652Z,98126.66
2022-08-11T02:06:39.204Z,98122.03
2022-08-11T02:11:06.581Z,98121.19
2022-08-11T02:15:22.196Z,98127.66
2022-08-11T02:19:49.007Z,98126.66
2022-08-11T02:24:06.766Z,98127.28
2022-08-11T02:28:26.010Z,98111.50
2022-08-11T02:32:52.099Z,98111.69
2022-08-11T02:37:02.047Z,98117.97
2022-08-11T02:41:25.965Z,98101.72
2022-08-11T02:45:39.019Z,98107.81
2022-08-11T02:50:06.868Z,98108.22
2022-08-11T02:54:17.689Z,98107.63
2022-08-11T02:58:29.882Z,98107.34
2022-08-11T03:02:50.231Z,98106.28
2022-08-11T03:07:02.398Z,98102.59
2022-08-11T03:11:33.658Z,98099.69
2022-08-11T03:16:11.127Z,98097.81
2022-08-11T03:20:38.086Z,98096.53
2022-08-11T03:24:54.965Z,98096.13
2022-08-11T03:29:08.177Z,98107.81
2022-08-11T03:33:40.211Z,98109.81
2022-08-11T03:37:53.044Z,98111.00
2022-08-11T03:42:10.277Z,98105.28
2022-08-11T03:46:24.583Z,98109.38
2022-08-11T03:50:55.149Z,98106.28
2022-08-11T03:55:10.966Z,98107.53
2022-08-11T03:59:40.970Z,98106.53
2022-08-11T04:04:09.646Z,98103.72
2022-08-11T04:08:55.456Z,98107.81
2022-08-11T04:13:43.139Z,98099.75
2022-08-11T04:18:32.215Z,98096.13
2022-08-11T04:23:09.133Z,98095.75
2022-08-11T04:27:44.523Z,98097.19
2022-08-11T04:32:10.545Z,98107.16
2022-08-11T04:36:56.602Z,98101.53
2022-08-11T04:41:32.260Z,98103.59
2022-08-11T04:45:51.128Z,98031.84
2022-08-11T04:50:26.686Z,98108.72
2022-08-11T04:55:06.755Z,98108.19
2022-08-11T05:00:03.918Z,98118.75
2022-08-11T05:04:42.769Z,98110.38
2022-08-11T05:09:07.772Z,98114.13
2022-08-11T05:13:39.942Z,98118.72
2022-08-11T05:18:04.665Z,98109.31
2022-08-11T05:22:30.317Z,98107.19
2022-08-11T05:27:00.710Z,98116.19
2022-08-11T05:31:27.667Z,98109.56
2022-08-11T05:36:00.552Z,98118.59
2022-08-11T05:40:24.307Z,98117.66
2022-08-11T05:44:47.923Z,98114.72
2022-08-11T05:49:12.259Z,98109.34
2022-08-11T05:53:35.996Z,98109.22
2022-08-11T05:57:52.078Z,98110.50
2022-08-11T06:02:02.437Z,98116.41
2022-08-11T06:06:11.283Z,98119.72
2022-08-11T06:10:15.821Z,98123.00
2022-08-11T06:14:20.216Z,98121.03
2022-08-11T06:18:24.182Z,98124.28
2022-08-11T06:22:29.845Z,98123.09
2022-08-11T06:26:44.860Z,98134.06
2022-08-11T06:30:57.741Z,98124.94
2022-08-11T06:35:14.190Z,98124.66
2022-08-11T06:39:28.883Z,98133.56
2022-08-11T06:43:55.753Z,98141.59
2022-08-11T06:48:03.601Z,98138.47
2022-08-11T06:52:12.801Z,98131.34
2022-08-11T07:01:29.865Z,98125.59
2022-08-11T07:05:44.042Z,98128.72
2022-08-11T07:10:39.698Z,98122.09
2022-08-11T07:15:09.254Z,98128.59
2022-08-11T07:19:33.305Z,98122.34
2022-08-11T07:23:56.287Z,98109.75
2022-08-11T07:28:21.422Z,98106.78
2022-08-11T07:32:30.100Z,98105.75
2022-08-11T07:36:35.641Z,98104.19
2022-08-11T07:40:39.855Z,98109.19
2022-08-11T07:44:58.098Z,98105.56
2022-08-11T07:49:21.999Z,98111.44
2022-08-11T07:53:26.096Z,98110.31
2022-08-11T07:58:08.746Z,98097.88
2022-08-11T08:02:31.005Z,98098.84
2022-08-11T08:06:53.743Z,98099.22
2022-08-11T08:11:16.050Z,98099.59
2022-08-11T08:15:39.056Z,98086.47
2022-08-11T08:19:44.896Z,98085.91
2022-08-11T08:23:53.039Z,98093.13
2022-08-11T08:28:02.210Z,98093.34
2022-08-11T08:32:06.360Z,98085.00
2022-08-11T08:36:15.847Z,98090.31
2022-08-11T08:40:21.624Z,98092.69
2022-08-11T08:44:44.652Z,98088.97
2022-08-11T08:48:49.902Z,98086.25
2022-08-11T08:53:03.774Z,98095.66
2022-08-11T08:57:12.598Z,98093.50
2022-08-11T09:01:18.287Z,98088.69
2022-08-11T09:05:24.122Z,98082.00
2022-08-11T09:09:29.583Z,98084.16
2022-08-11T09:13:35.045Z,98063.75
2022-08-11T09:17:41.942Z,98079.66
2022-08-11T09:22:06.929Z,98081.78
2022-08-11T09:26:30.286Z,98091.50
2022-08-11T09:30:35.928Z,98076.97
2022-08-11T09:34:41.011Z,98078.59
2022-08-11T09:39:01.939Z,98068.91
2022-08-11T09:43:25.798Z,98068.84
2022-08-11T09:47:32.175Z,98069.31
2022-08-11T09:51:36.186Z,98057.44
2022-08-11T09:55:46.212Z,98052.75
2022-08-11T09:59:49.803Z,98061.06
2022-08-11T10:04:03.066Z,98052.91
2022-08-11T10:08:08.631Z,98056.63
2022-08-11T10:12:15.373Z,98047.41
2022-08-11T10:16:19.368Z,98040.91
2022-08-11T10:20:25.919Z,98044.53
2022-08-11T10:24:46.697Z,98039.31
2022-08-11T10:29:11.965Z,98039.06
2022-08-11T10:33:36.847Z,98036.31
2022-08-11T10:38:08.305Z,98033.38
2022-08-11T10:42:47.722Z,98023.47
2022-08-11T10:51:53.667Z,98027.19
2022-08-11T10:56:18.204Z,98017.66
2022-08-11T11:00:21.521Z,98026.72
2022-08-11T11:04:28.089Z,98016.34
2022-08-11T11:08:50.825Z,98018.59
2022-08-11T11:13:17.529Z,97993.25
2022-08-11T11:17:45.866Z,97993.13
2022-08-11T11:21:53.574Z,97997.31
2022-08-11T11:26:15.014Z,97988.03
2022-08-11T11:30:21.234Z,97980.72
2022-08-11T11:34:52.952Z,97972.03
2022-08-11T11:38:59.594Z,97971.63
2022-08-11T11:43:03.825Z,97971.72
2022-08-11T11:47:09.510Z,97964.53
2022-08-11T11:51:14.645Z,97970.19
2022-08-11T11:55:18.505Z,97958.16
2022-08-11T11:59:40.408Z,97964.06
2022-08-11T12:03:47.404Z,97962.38
2022-08-11T12:08:13.165Z,97951.06
2022-08-11T12:12:34.131Z,97959.66
2022-08-11T12:16:39.362Z,97950.88
2022-08-11T12:20:45.682Z,97950.16
2022-08-11T12:25:07.280Z,97941.13
2022-08-11T12:29:13.094Z,97938.00
2022-08-11T12:33:23.856Z,97937.91
2022-08-11T12:37:33.597Z,97927.50
2022-08-11T12:41:58.638Z,97919.25
2022-08-11T12:46:07.828Z,97926.28
2022-08-11T12:50:29.254Z,97908.16
2022-08-11T12:54:42.248Z,97927.91
2022-08-11T12:58:48.378Z,97914.22
2022-08-11T13:03:11.049Z,97912.31
2022-08-11T13:07:16.043Z,97909.09
2022-08-11T13:11:56.380Z,97908.31
2022-08-11T13:16:02.424Z,97912.88
2022-08-11T13:20:09.014Z,97905.06
2022-08-11T13:24:12.384Z,97902.94
2022-08-11T13:28:21.888Z,97899.34
2022-08-11T13:32:27.077Z,97898.63
2022-08-11T13:36:30.610Z,97890.75
2022-08-11T13:40:54.603Z,97887.28
2022-08-11T13:45:01.747Z,97893.63
2022-08-11T13:49:06.181Z,97881.56
2022-08-11T13:53:10.088Z,97869.50
2022-08-11T13:58:07.516Z,97876.03
2022-08-11T14:02:03.591Z,97869.75
2022-08-11T14:06:10.151Z,97866.94
2022-08-11T14:10:17.806Z,97863.28
2022-08-11T14:14:26.697Z,97854.03
2022-08-11T14:18:33.751Z,97856.13
2022-08-11T14:22:40.297Z,97853.41
2022-08-11T14:26:44.823Z,97852.78
2022-08-11T14:31:01.561Z,97853.44
2022-08-11T14:35:07.709Z,97845.47
2022-08-11T14:39:13.600Z,97843.06
2022-08-11T14:44:12.493Z,97846.44
2022-08-11T14:48:03.194Z,97847.22
2022-08-11T14:52:10.921Z,97844.50
2022-08-11T14:56:32.304Z,97842.75
2022-08-11T15:00:36.513Z,97842.75
2022-08-11T15:04:40.637Z,97835.75
2022-08-11T15:08:58.250Z,97840.09
2022-08-11T15:13:03.268Z,97840.16
2022-08-11T15:17:10.433Z,97831.22
2022-08-11T15:21:32.060Z,97836.50
2022-08-11T15:25:38.022Z,97825.19
2022-08-11T15:30:01.261Z,97822.47
2022-08-11T15:34:24.623Z,97821.22
2022-08-11T15:38:36.932Z,97811.75
2022-08-11T15:43:06.557Z,97811.41
2022-08-11T15:47:17.101Z,97810.44
2022-08-11T15:51:25.461Z,97803.09
2022-08-11T15:55:32.795Z,97795.41
2022-08-11T15:59:58.597Z,97796.56
2022-08-11T16:04:14.850Z,97792.13
2022-08-11T16:08:23.536Z,97793.78
2022-08-11T16:12:41.338Z,97798.22
2022-08-11T16:16:47.644Z,97790.22
2022-08-11T16:20:53.588Z,97792.09
2022-08-11T16:27:01.997Z,97789.88
2022-08-11T16:29:25.152Z,97791.66
2022-08-11T16:33:51.235Z,97790.88
2022-08-11T16:38:14.330Z,97792.81
2022-08-11T16:43:08.595Z,97784.94
2022-08-11T16:47:01.420Z,97786.19
2022-08-11T16:51:07.695Z,97736.16
2022-08-11T16:55:12.274Z,97777.84
2022-08-11T16:59:38.917Z,97740.88
2022-08-11T17:04:06.803Z,97783.56
2022-08-11T17:08:30.280Z,97783.63
2022-08-11T17:12:53.648Z,97789.41
2022-08-11T17:16:58.403Z,97792.13
2022-08-11T17:21:04.348Z,97797.56
2022-08-11T17:25:11.836Z,97790.28
2022-08-11T17:29:16.221Z,97792.72
2022-08-11T17:33:38.417Z,97790.31
2022-08-11T17:37:43.379Z,97798.00
2022-08-11T17:42:14.502Z,97797.94
2022-08-11T17:46:35.363Z,97805.38
2022-08-11T17:50:40.203Z,97808.44
2022-08-11T17:55:02.765Z,97813.44
2022-08-11T17:59:32.437Z,97817.84
2022-08-11T18:03:40.101Z,97810.72
2022-08-11T18:08:03.089Z,97809.75
2022-08-11T18:12:25.924Z,97817.84
2022-08-11T18:16:48.757Z,97816.03
2022-08-11T18:21:09.887Z,97814.00
2022-08-11T18:25:34.194Z,97821.47
2022-08-11T18:29:59.157Z,97829.19
2022-08-11T18:34:25.052Z,97836.94
2022-08-11T18:38:48.415Z,97835.31
2022-08-11T18:43:12.222Z,97844.81
2022-08-11T18:47:35.482Z,97841.53
2022-08-11T18:52:03.049Z,97838.78
2022-08-11T18:56:24.570Z,97843.47
2022-08-11T19:00:47.473Z,97852.47
2022-08-11T19:05:08.536Z,97853.88
2022-08-11T19:09:33.305Z,97854.16
2022-08-11T19:13:55.381Z,97855.69
2022-08-11T19:18:17.904Z,97850.38
2022-08-11T19:22:40.101Z,97861.50
2022-08-11T19:27:03.205Z,97888.69
2022-08-11T19:31:24.545Z,97882.09
2022-08-11T19:35:46.022Z,97879.69
2022-08-11T19:40:07.879Z,97876.19
2022-08-11T19:44:33.218Z,97876.97
2022-08-11T19:48:54.687Z,97882.53
2022-08-11T19:53:16.893Z,97882.75
2022-08-11T19:57:40.493Z,97882.56
2022-08-11T20:02:14.314Z,97876.06
2022-08-11T20:06:37.146Z,97887.88
2022-08-11T20:10:59.294Z,97885.63
2022-08-11T20:15:21.820Z,97895.78
2022-08-11T20:19:55.406Z,97891.47
2022-08-11T20:24:20.356Z,97888.97
2022-08-11T20:28:41.373Z,97890.13
2022-08-11T20:33:04.164Z,97893.50
2022-08-11T20:37:26.641Z,97896.66
2022-08-11T20:41:58.927Z,97896.56
2022-08-11T20:46:22.231Z,97893.59
2022-08-11T20:50:45.670Z,97897.56
2022-08-11T20:55:14.816Z,97896.22
2022-08-11T20:59:50.678Z,97895.47
2022-08-11T21:04:17.427Z,97900.97
2022-08-11T21:08:44.714Z,97901.25
2022-08-11T21:13:25.131Z,97906.81
2022-08-11T21:18:00.787Z,97906.47
2022-08-11T21:22:32.441Z,97906.91
2022-08-11T21:26:58.277Z,97909.00
2022-08-11T21:31:26.405Z,97913.94
2022-08-11T21:35:47.624Z,97906.47
2022-08-11T21:40:14.897Z,97908.75
2022-08-11T21:44:39.686Z,97920.97
2022-08-11T21:49:04.131Z,97919.38
2022-08-11T21:53:25.047Z,97917.75
2022-08-11T21:57:48.178Z,97922.25
2022-08-11T22:02:13.011Z,97920.84
2022-08-11T22:06:35.329Z,97920.66
2022-08-11T22:10:55.967Z,97918.41
2022-08-11T22:15:17.175Z,97924.72
2022-08-11T22:19:40.498Z,97914.38
2022-08-11T22:24:03.908Z,97909.28
2022-08-11T22:28:29.123Z,97917.41
2022-08-11T22:32:50.611Z,97910.50
2022-08-11T22:37:26.829Z,97918.66
2022-08-11T22:41:50.682Z,97911.72
2022-08-11T22:46:11.656Z,97915.00
2022-08-11T22:50:34.120Z,97906.69
2022-08-11T22:54:56.163Z,97909.31
2022-08-11T22:59:18.946Z,97909.75
2022-08-11T23:03:40.234Z,97899.78
2022-08-11T23:08:01.100Z,97895.13
2022-08-11T23:12:22.836Z,97905.09
2022-08-11T23:16:45.477Z,97901.84
2022-08-11T23:21:07.221Z,97903.28
2022-08-11T23:25:28.012Z,97899.63
2022-08-11T23:29:52.247Z,97895.19
2022-08-11T23:35:02.431Z,97905.69
2022-08-11T23:38:57.298Z,97903.69
2022-08-11T23:43:19.053Z,97899.03
2022-08-11T23:47:50.902Z,97891.91
2022-08-11T23:52:14.475Z,97887.44
2022-08-11T23:56:35.052Z,97875.47
